sensor_id;sensor_type;location;lat;lon;timestamp;temperature;humidity
26623;DHT22;14254;50.968;5.366;2022-09-13T00:00:36;18.00;99.90
26623;DHT22;14254;50.968;5.366;2022-09-13T00:03:03;18.10;99.90
26623;DHT22;14254;50.968;5.366;2022-09-13T00:05:29;18.20;99.90
26623;DHT22;14254;50.968;5.366;2022-09-13T00:07:56;18.30;99.90
26623;DHT22;14254;50.968;5.366;2022-09-13T00:10:22;18.40;99.90
26623;DHT22;14254;50.968;5.366;2022-09-13T00:12:48;18.40;99.90
26623;DHT22;14254;50.968;5.366;2022-09-13T00:15:14;18.40;99.90
26623;DHT22;14254;50.968;5.366;2022-09-13T00:17:40;18.40;99.90
26623;DHT22;14254;50.968;5.366;2022-09-13T00:20:06;18.40;99.90
26623;DHT22;14254;50.968;5.366;2022-09-13T00:22:33;18.30;99.90
26623;DHT22;14254;50.968;5.366;2022-09-13T00:24:59;18.20;99.90
26623;DHT22;14254;50.968;5.366;2022-09-13T00:27:24;18.10;99.90
26623;DHT22;14254;50.968;5.366;2022-09-13T00:29:50;17.80;99.90
26623;DHT22;14254;50.968;5.366;2022-09-13T00:32:17;17.60;99.90
26623;DHT22;14254;50.968;5.366;2022-09-13T00:34:42;17.50;99.90
26623;DHT22;14254;50.968;5.366;2022-09-13T00:37:08;17.50;99.90
26623;DHT22;14254;50.968;5.366;2022-09-13T00:39:34;17.50;99.90
26623;DHT22;14254;50.968;5.366;2022-09-13T00:42:00;17.40;99.90
26623;DHT22;14254;50.968;5.366;2022-09-13T00:47:15;17.30;99.90
26623;DHT22;14254;50.968;5.366;2022-09-13T00:49:42;17.20;99.90
26623;DHT22;14254;50.968;5.366;2022-09-13T00:52:14;17.20;99.90
26623;DHT22;14254;50.968;5.366;2022-09-13T00:54:47;17.20;99.90
26623;DHT22;14254;50.968;5.366;2022-09-13T00:57:17;17.20;99.90
26623;DHT22;14254;50.968;5.366;2022-09-13T01:02:26;17.30;99.90
26623;DHT22;14254;50.968;5.366;2022-09-13T01:04:53;17.30;99.90
26623;DHT22;14254;50.968;5.366;2022-09-13T01:07:19;17.30;99.90
26623;DHT22;14254;50.968;5.366;2022-09-13T01:09:47;17.30;99.90
26623;DHT22;14254;50.968;5.366;2022-09-13T01:12:42;17.30;99.90
26623;DHT22;14254;50.968;5.366;2022-09-13T01:15:10;17.40;99.90
26623;DHT22;14254;50.968;5.366;2022-09-13T01:17:37;17.40;99.90
26623;DHT22;14254;50.968;5.366;2022-09-13T01:20:05;17.50;99.90
26623;DHT22;14254;50.968;5.366;2022-09-13T01:39:05;17.80;99.90
26623;DHT22;14254;50.968;5.366;2022-09-13T01:41:58;17.90;99.90
26623;DHT22;14254;50.968;5.366;2022-09-13T01:52:53;18.30;99.90
26623;DHT22;14254;50.968;5.366;2022-09-13T02:01:27;18.40;99.90
26623;DHT22;14254;50.968;5.366;2022-09-13T02:04:10;18.40;99.90
26623;DHT22;14254;50.968;5.366;2022-09-13T02:06:59;18.40;99.90
26623;DHT22;14254;50.968;5.366;2022-09-13T02:09:27;18.40;99.90
26623;DHT22;14254;50.968;5.366;2022-09-13T02:12:09;18.30;99.90
26623;DHT22;14254;50.968;5.366;2022-09-13T02:14:42;18.30;99.90
26623;DHT22;14254;50.968;5.366;2022-09-13T02:17:15;18.30;99.90
26623;DHT22;14254;50.968;5.366;2022-09-13T02:19:46;18.30;99.90
26623;DHT22;14254;50.968;5.366;2022-09-13T02:22:15;18.30;99.90
26623;DHT22;14254;50.968;5.366;2022-09-13T02:24:46;18.40;99.90
26623;DHT22;14254;50.968;5.366;2022-09-13T02:27:17;18.40;99.90
26623;DHT22;14254;50.968;5.366;2022-09-13T02:29:46;18.40;99.90
26623;DHT22;14254;50.968;5.366;2022-09-13T02:32:21;18.50;99.90
26623;DHT22;14254;50.968;5.366;2022-09-13T02:35:00;18.40;99.90
26623;DHT22;14254;50.968;5.366;2022-09-13T02:37:31;18.40;99.90
26623;DHT22;14254;50.968;5.366;2022-09-13T02:40:04;18.40;99.90
26623;DHT22;14254;50.968;5.366;2022-09-13T02:42:41;18.30;99.90
26623;DHT22;14254;50.968;5.366;2022-09-13T02:45:09;18.30;99.90
26623;DHT22;14254;50.968;5.366;2022-09-13T02:53:03;18.20;99.90
26623;DHT22;14254;50.968;5.366;2022-09-13T02:55:48;18.10;99.90
26623;DHT22;14254;50.968;5.366;2022-09-13T02:58:21;18.00;99.90
26623;DHT22;14254;50.968;5.366;2022-09-13T03:00:50;18.10;99.90
26623;DHT22;14254;50.968;5.366;2022-09-13T03:03:16;18.10;99.90
26623;DHT22;14254;50.968;5.366;2022-09-13T03:05:42;18.30;99.90
26623;DHT22;14254;50.968;5.366;2022-09-13T03:08:10;18.30;99.90
26623;DHT22;14254;50.968;5.366;2022-09-13T03:10:48;18.20;99.90
26623;DHT22;14254;50.968;5.366;2022-09-13T03:21:35;18.20;99.90
26623;DHT22;14254;50.968;5.366;2022-09-13T03:24:24;17.90;99.90
26623;DHT22;14254;50.968;5.366;2022-09-13T03:27:15;17.90;99.90
26623;DHT22;14254;50.968;5.366;2022-09-13T03:35:39;18.00;99.90
26623;DHT22;14254;50.968;5.366;2022-09-13T03:43:13;17.80;99.90
26623;DHT22;14254;50.968;5.366;2022-09-13T03:45:54;17.70;99.90
26623;DHT22;14254;50.968;5.366;2022-09-13T03:48:21;17.50;99.90
26623;DHT22;14254;50.968;5.366;2022-09-13T03:50:48;17.40;99.90
26623;DHT22;14254;50.968;5.366;2022-09-13T03:53:20;17.50;99.90
26623;DHT22;14254;50.968;5.366;2022-09-13T03:55:47;17.60;99.90
26623;DHT22;14254;50.968;5.366;2022-09-13T03:58:17;17.70;99.90
26623;DHT22;14254;50.968;5.366;2022-09-13T04:00:43;17.70;99.90
26623;DHT22;14254;50.968;5.366;2022-09-13T04:03:10;17.80;99.90
26623;DHT22;14254;50.968;5.366;2022-09-13T04:05:36;17.70;99.90
26623;DHT22;14254;50.968;5.366;2022-09-13T04:08:03;17.70;99.90
26623;DHT22;14254;50.968;5.366;2022-09-13T04:10:33;17.80;99.90
26623;DHT22;14254;50.968;5.366;2022-09-13T04:13:00;17.80;99.90
26623;DHT22;14254;50.968;5.366;2022-09-13T04:15:27;17.80;99.90
26623;DHT22;14254;50.968;5.366;2022-09-13T04:17:52;17.80;99.90
26623;DHT22;14254;50.968;5.366;2022-09-13T04:20:18;17.80;99.90
26623;DHT22;14254;50.968;5.366;2022-09-13T04:22:51;17.80;99.90
26623;DHT22;14254;50.968;5.366;2022-09-13T04:25:16;17.90;99.90
26623;DHT22;14254;50.968;5.366;2022-09-13T04:27:42;17.90;99.90
26623;DHT22;14254;50.968;5.366;2022-09-13T04:30:08;17.80;99.90
26623;DHT22;14254;50.968;5.366;2022-09-13T04:32:34;17.80;99.90
26623;DHT22;14254;50.968;5.366;2022-09-13T04:34:59;17.80;99.90
26623;DHT22;14254;50.968;5.366;2022-09-13T04:37:25;17.70;99.90
26623;DHT22;14254;50.968;5.366;2022-09-13T04:39:51;17.70;99.90
26623;DHT22;14254;50.968;5.366;2022-09-13T04:42:17;17.80;99.90
26623;DHT22;14254;50.968;5.366;2022-09-13T04:44:44;17.40;99.90
26623;DHT22;14254;50.968;5.366;2022-09-13T04:47:09;17.30;99.90
26623;DHT22;14254;50.968;5.366;2022-09-13T04:49:35;17.50;99.90
26623;DHT22;14254;50.968;5.366;2022-09-13T04:52:01;17.60;99.90
26623;DHT22;14254;50.968;5.366;2022-09-13T04:54:27;17.60;99.90
26623;DHT22;14254;50.968;5.366;2022-09-13T04:56:52;17.60;99.90
26623;DHT22;14254;50.968;5.366;2022-09-13T04:59:19;17.60;99.90
26623;DHT22;14254;50.968;5.366;2022-09-13T05:01:45;17.60;99.90
26623;DHT22;14254;50.968;5.366;2022-09-13T05:04:10;17.50;99.90
26623;DHT22;14254;50.968;5.366;2022-09-13T05:06:36;17.60;99.90
26623;DHT22;14254;50.968;5.366;2022-09-13T05:09:03;17.60;99.90
26623;DHT22;14254;50.968;5.366;2022-09-13T05:11:29;17.60;99.90
26623;DHT22;14254;50.968;5.366;2022-09-13T05:13:57;17.60;99.90
26623;DHT22;14254;50.968;5.366;2022-09-13T05:16:28;17.70;99.90
26623;DHT22;14254;50.968;5.366;2022-09-13T05:18:55;17.70;99.90
26623;DHT22;14254;50.968;5.366;2022-09-13T05:21:21;17.60;99.90
26623;DHT22;14254;50.968;5.366;2022-09-13T05:23:51;17.60;99.90
26623;DHT22;14254;50.968;5.366;2022-09-13T05:26:19;17.70;99.90
26623;DHT22;14254;50.968;5.366;2022-09-13T05:28:45;17.80;99.90
26623;DHT22;14254;50.968;5.366;2022-09-13T05:31:19;17.70;99.90
26623;DHT22;14254;50.968;5.366;2022-09-13T05:33:47;17.70;99.90
26623;DHT22;14254;50.968;5.366;2022-09-13T05:36:16;17.80;99.90
26623;DHT22;14254;50.968;5.366;2022-09-13T05:38:42;17.80;99.90
26623;DHT22;14254;50.968;5.366;2022-09-13T05:41:08;17.80;99.90
26623;DHT22;14254;50.968;5.366;2022-09-13T05:43:35;17.70;99.90
26623;DHT22;14254;50.968;5.366;2022-09-13T05:46:01;17.80;99.90
26623;DHT22;14254;50.968;5.366;2022-09-13T05:48:28;17.80;99.90
26623;DHT22;14254;50.968;5.366;2022-09-13T05:50:54;17.90;99.90
26623;DHT22;14254;50.968;5.366;2022-09-13T05:53:20;17.90;99.90
26623;DHT22;14254;50.968;5.366;2022-09-13T05:55:46;17.90;99.90
26623;DHT22;14254;50.968;5.366;2022-09-13T05:58:11;17.90;99.90
26623;DHT22;14254;50.968;5.366;2022-09-13T06:00:37;17.80;99.90
26623;DHT22;14254;50.968;5.366;2022-09-13T06:03:03;17.50;99.90
26623;DHT22;14254;50.968;5.366;2022-09-13T06:05:29;17.60;99.90
26623;DHT22;14254;50.968;5.366;2022-09-13T06:07:54;17.80;99.90
26623;DHT22;14254;50.968;5.366;2022-09-13T06:10:20;18.00;99.90
26623;DHT22;14254;50.968;5.366;2022-09-13T06:12:46;18.10;99.90
26623;DHT22;14254;50.968;5.366;2022-09-13T06:15:12;17.80;99.90
26623;DHT22;14254;50.968;5.366;2022-09-13T06:17:38;17.70;99.90
26623;DHT22;14254;50.968;5.366;2022-09-13T06:20:04;17.80;99.90
26623;DHT22;14254;50.968;5.366;2022-09-13T06:22:30;18.10;99.90
26623;DHT22;14254;50.968;5.366;2022-09-13T06:24:58;18.30;99.90
26623;DHT22;14254;50.968;5.366;2022-09-13T06:27:24;18.40;99.90
26623;DHT22;14254;50.968;5.366;2022-09-13T06:29:50;18.50;99.90
26623;DHT22;14254;50.968;5.366;2022-09-13T06:32:15;18.40;99.90
26623;DHT22;14254;50.968;5.366;2022-09-13T06:34:41;18.40;99.90
26623;DHT22;14254;50.968;5.366;2022-09-13T06:37:07;18.40;99.90
26623;DHT22;14254;50.968;5.366;2022-09-13T06:39:32;18.50;99.90
26623;DHT22;14254;50.968;5.366;2022-09-13T06:41:59;18.70;99.90
26623;DHT22;14254;50.968;5.366;2022-09-13T06:44:24;18.90;99.90
26623;DHT22;14254;50.968;5.366;2022-09-13T06:46:50;19.00;99.90
26623;DHT22;14254;50.968;5.366;2022-09-13T06:49:16;18.90;99.90
26623;DHT22;14254;50.968;5.366;2022-09-13T06:51:41;19.10;99.90
26623;DHT22;14254;50.968;5.366;2022-09-13T06:54:07;19.20;99.90
26623;DHT22;14254;50.968;5.366;2022-09-13T06:56:35;19.20;99.90
26623;DHT22;14254;50.968;5.366;2022-09-13T06:59:03;19.40;99.90
26623;DHT22;14254;50.968;5.366;2022-09-13T07:01:37;19.40;99.90
26623;DHT22;14254;50.968;5.366;2022-09-13T07:04:08;19.60;99.90
26623;DHT22;14254;50.968;5.366;2022-09-13T07:06:37;19.30;99.90
26623;DHT22;14254;50.968;5.366;2022-09-13T07:09:05;19.40;99.90
26623;DHT22;14254;50.968;5.366;2022-09-13T07:11:34;19.40;99.90
26623;DHT22;14254;50.968;5.366;2022-09-13T07:14:01;19.50;99.90
26623;DHT22;14254;50.968;5.366;2022-09-13T07:16:29;19.70;99.90
26623;DHT22;14254;50.968;5.366;2022-09-13T07:19:00;20.00;99.90
26623;DHT22;14254;50.968;5.366;2022-09-13T07:21:27;20.30;99.90
26623;DHT22;14254;50.968;5.366;2022-09-13T07:23:54;20.50;99.90
26623;DHT22;14254;50.968;5.366;2022-09-13T07:26:20;20.70;99.90
26623;DHT22;14254;50.968;5.366;2022-09-13T07:28:48;20.90;99.90
26623;DHT22;14254;50.968;5.366;2022-09-13T07:31:15;21.10;99.90
26623;DHT22;14254;50.968;5.366;2022-09-13T07:33:42;21.30;99.90
26623;DHT22;14254;50.968;5.366;2022-09-13T07:36:09;21.50;99.90
26623;DHT22;14254;50.968;5.366;2022-09-13T07:38:37;21.70;99.90
26623;DHT22;14254;50.968;5.366;2022-09-13T07:41:04;21.80;99.90
26623;DHT22;14254;50.968;5.366;2022-09-13T07:43:32;21.90;99.90
26623;DHT22;14254;50.968;5.366;2022-09-13T07:46:05;21.80;99.90
26623;DHT22;14254;50.968;5.366;2022-09-13T07:48:33;21.90;99.90
26623;DHT22;14254;50.968;5.366;2022-09-13T07:53:30;22.20;99.90
26623;DHT22;14254;50.968;5.366;2022-09-13T07:56:03;22.30;99.90
26623;DHT22;14254;50.968;5.366;2022-09-13T07:58:29;22.50;99.90
26623;DHT22;14254;50.968;5.366;2022-09-13T08:01:08;22.60;99.90
26623;DHT22;14254;50.968;5.366;2022-09-13T08:03:35;22.80;99.90
26623;DHT22;14254;50.968;5.366;2022-09-13T08:06:01;22.50;99.90
26623;DHT22;14254;50.968;5.366;2022-09-13T08:08:28;22.80;99.90
26623;DHT22;14254;50.968;5.366;2022-09-13T08:10:54;23.10;99.90
26623;DHT22;14254;50.968;5.366;2022-09-13T08:13:20;23.30;99.90
26623;DHT22;14254;50.968;5.366;2022-09-13T08:15:46;23.50;99.90
26623;DHT22;14254;50.968;5.366;2022-09-13T08:18:11;23.60;99.90
26623;DHT22;14254;50.968;5.366;2022-09-13T08:20:38;23.70;99.90
26623;DHT22;14254;50.968;5.366;2022-09-13T08:23:05;23.90;99.90
26623;DHT22;14254;50.968;5.366;2022-09-13T08:25:35;23.90;99.90
26623;DHT22;14254;50.968;5.366;2022-09-13T08:28:04;23.80;99.90
26623;DHT22;14254;50.968;5.366;2022-09-13T08:30:30;23.90;99.90
26623;DHT22;14254;50.968;5.366;2022-09-13T08:33:01;23.90;99.90
26623;DHT22;14254;50.968;5.366;2022-09-13T08:35:28;24.00;99.90
26623;DHT22;14254;50.968;5.366;2022-09-13T08:37:53;24.10;99.90
26623;DHT22;14254;50.968;5.366;2022-09-13T08:40:20;24.00;99.90
26623;DHT22;14254;50.968;5.366;2022-09-13T08:45:20;23.60;99.90
26623;DHT22;14254;50.968;5.366;2022-09-13T08:47:56;23.60;99.90
26623;DHT22;14254;50.968;5.366;2022-09-13T08:53:50;24.00;99.90
26623;DHT22;14254;50.968;5.366;2022-09-13T09:06:35;23.90;99.90
26623;DHT22;14254;50.968;5.366;2022-09-13T09:09:09;23.80;99.90
26623;DHT22;14254;50.968;5.366;2022-09-13T09:12:05;23.60;99.90
26623;DHT22;14254;50.968;5.366;2022-09-13T09:14:41;23.80;99.90
26623;DHT22;14254;50.968;5.366;2022-09-13T09:20:32;24.30;99.90
26623;DHT22;14254;50.968;5.366;2022-09-13T09:23:30;24.60;99.90
26623;DHT22;14254;50.968;5.366;2022-09-13T09:26:32;25.20;99.90
26623;DHT22;14254;50.968;5.366;2022-09-13T09:29:19;25.40;99.90
26623;DHT22;14254;50.968;5.366;2022-09-13T09:32:02;25.30;99.90
26623;DHT22;14254;50.968;5.366;2022-09-13T09:37:27;25.80;99.90
26623;DHT22;14254;50.968;5.366;2022-09-13T09:39:57;25.90;99.90
26623;DHT22;14254;50.968;5.366;2022-09-13T09:42:31;26.20;99.90
26623;DHT22;14254;50.968;5.366;2022-09-13T09:45:03;26.30;99.90
26623;DHT22;14254;50.968;5.366;2022-09-13T09:47:45;26.50;99.90
26623;DHT22;14254;50.968;5.366;2022-09-13T09:50:18;26.70;99.90
26623;DHT22;14254;50.968;5.366;2022-09-13T09:58:13;26.90;99.90
26623;DHT22;14254;50.968;5.366;2022-09-13T10:00:56;27.30;99.90
26623;DHT22;14254;50.968;5.366;2022-09-13T10:03:28;27.50;99.90
26623;DHT22;14254;50.968;5.366;2022-09-13T10:06:10;27.70;99.90
26623;DHT22;14254;50.968;5.366;2022-09-13T10:08:38;27.80;99.90
26623;DHT22;14254;50.968;5.366;2022-09-13T10:11:05;28.00;99.90
26623;DHT22;14254;50.968;5.366;2022-09-13T10:13:31;28.40;99.90
26623;DHT22;14254;50.968;5.366;2022-09-13T10:16:04;28.60;99.90
26623;DHT22;14254;50.968;5.366;2022-09-13T10:18:35;28.50;99.90
26623;DHT22;14254;50.968;5.366;2022-09-13T10:23:31;27.70;99.90
26623;DHT22;14254;50.968;5.366;2022-09-13T10:26:06;28.00;99.90
26623;DHT22;14254;50.968;5.366;2022-09-13T10:29:06;27.80;99.90
26623;DHT22;14254;50.968;5.366;2022-09-13T10:31:36;28.00;99.90
26623;DHT22;14254;50.968;5.366;2022-09-13T10:34:12;28.10;99.90
26623;DHT22;14254;50.968;5.366;2022-09-13T10:36:47;27.90;99.90
26623;DHT22;14254;50.968;5.366;2022-09-13T10:39:21;28.20;99.90
26623;DHT22;14254;50.968;5.366;2022-09-13T10:41:48;28.60;99.90
26623;DHT22;14254;50.968;5.366;2022-09-13T10:44:45;28.20;99.90
26623;DHT22;14254;50.968;5.366;2022-09-13T10:49:58;28.90;99.90
26623;DHT22;14254;50.968;5.366;2022-09-13T10:52:42;28.80;99.90
26623;DHT22;14254;50.968;5.366;2022-09-13T10:58:11;29.20;99.30
26623;DHT22;14254;50.968;5.366;2022-09-13T11:06:17;29.00;98.50
26623;DHT22;14254;50.968;5.366;2022-09-13T11:09:16;29.40;98.40
26623;DHT22;14254;50.968;5.366;2022-09-13T11:14:52;29.20;97.70
26623;DHT22;14254;50.968;5.366;2022-09-13T11:34:36;30.70;96.90
26623;DHT22;14254;50.968;5.366;2022-09-13T11:42:35;30.80;95.30
26623;DHT22;14254;50.968;5.366;2022-09-13T11:45:21;30.90;94.50
26623;DHT22;14254;50.968;5.366;2022-09-13T11:51:19;30.20;95.80
26623;DHT22;14254;50.968;5.366;2022-09-13T11:56:30;31.00;94.70
26623;DHT22;14254;50.968;5.366;2022-09-13T12:01:39;32.90;92.40
26623;DHT22;14254;50.968;5.366;2022-09-13T12:04:30;33.50;90.80
26623;DHT22;14254;50.968;5.366;2022-09-13T12:07:04;33.50;90.10
26623;DHT22;14254;50.968;5.366;2022-09-13T12:09:48;34.00;87.80
26623;DHT22;14254;50.968;5.366;2022-09-13T12:12:17;35.20;82.80
26623;DHT22;14254;50.968;5.366;2022-09-13T12:14:49;37.10;77.90
26623;DHT22;14254;50.968;5.366;2022-09-13T12:17:38;36.70;77.00
26623;DHT22;14254;50.968;5.366;2022-09-13T12:20:17;36.50;75.60
26623;DHT22;14254;50.968;5.366;2022-09-13T12:22:45;36.60;75.90
26623;DHT22;14254;50.968;5.366;2022-09-13T12:25:23;37.30;73.80
26623;DHT22;14254;50.968;5.366;2022-09-13T12:28:03;37.20;72.40
26623;DHT22;14254;50.968;5.366;2022-09-13T12:30:56;36.10;74.80
26623;DHT22;14254;50.968;5.366;2022-09-13T12:33:22;36.00;74.60
26623;DHT22;14254;50.968;5.366;2022-09-13T12:36:01;37.40;73.10
26623;DHT22;14254;50.968;5.366;2022-09-13T12:52:23;35.20;72.40
26623;DHT22;14254;50.968;5.366;2022-09-13T13:00:32;33.70;75.80
26623;DHT22;14254;50.968;5.366;2022-09-13T13:03:11;33.60;76.00
26623;DHT22;14254;50.968;5.366;2022-09-13T13:05:55;33.20;77.00
26623;DHT22;14254;50.968;5.366;2022-09-13T13:08:30;33.00;77.30
26623;DHT22;14254;50.968;5.366;2022-09-13T13:11:06;32.70;77.50
26623;DHT22;14254;50.968;5.366;2022-09-13T13:13:38;32.20;80.30
26623;DHT22;14254;50.968;5.366;2022-09-13T13:18:52;31.60;82.50
26623;DHT22;14254;50.968;5.366;2022-09-13T13:21:30;31.70;79.90
26623;DHT22;14254;50.968;5.366;2022-09-13T13:26:47;31.80;82.50
26623;DHT22;14254;50.968;5.366;2022-09-13T13:32:08;32.60;80.80
26623;DHT22;14254;50.968;5.366;2022-09-13T13:42:27;32.50;82.80
26623;DHT22;14254;50.968;5.366;2022-09-13T13:50:01;31.50;84.40
26623;DHT22;14254;50.968;5.366;2022-09-13T13:52:37;31.40;85.10
26623;DHT22;14254;50.968;5.366;2022-09-13T13:58:30;31.10;85.40
26623;DHT22;14254;50.968;5.366;2022-09-13T14:00:58;30.30;91.00
26623;DHT22;14254;50.968;5.366;2022-09-13T14:24:47;28.20;99.60
26623;DHT22;14254;50.968;5.366;2022-09-13T14:27:34;27.80;99.90
26623;DHT22;14254;50.968;5.366;2022-09-13T14:30:13;27.30;99.90
26623;DHT22;14254;50.968;5.366;2022-09-13T14:32:43;27.00;99.90
26623;DHT22;14254;50.968;5.366;2022-09-13T14:35:39;26.60;99.90
26623;DHT22;14254;50.968;5.366;2022-09-13T14:38:22;26.20;99.90
26623;DHT22;14254;50.968;5.366;2022-09-13T14:40:51;26.10;99.90
26623;DHT22;14254;50.968;5.366;2022-09-13T14:43:23;25.70;99.90
26623;DHT22;14254;50.968;5.366;2022-09-13T14:45:51;25.60;99.90
26623;DHT22;14254;50.968;5.366;2022-09-13T14:48:22;25.60;99.90
26623;DHT22;14254;50.968;5.366;2022-09-13T14:50:55;25.90;99.90
26623;DHT22;14254;50.968;5.366;2022-09-13T14:53:24;26.00;99.90
26623;DHT22;14254;50.968;5.366;2022-09-13T14:56:03;26.20;99.90
26623;DHT22;14254;50.968;5.366;2022-09-13T14:58:51;26.00;99.90
26623;DHT22;14254;50.968;5.366;2022-09-13T15:01:30;25.80;99.90
26623;DHT22;14254;50.968;5.366;2022-09-13T15:03:58;25.50;99.90
26623;DHT22;14254;50.968;5.366;2022-09-13T15:06:28;25.00;99.90
26623;DHT22;14254;50.968;5.366;2022-09-13T15:11:41;24.80;99.90
26623;DHT22;14254;50.968;5.366;2022-09-13T15:16:53;24.90;99.90
26623;DHT22;14254;50.968;5.366;2022-09-13T15:21:49;25.10;99.90
26623;DHT22;14254;50.968;5.366;2022-09-13T15:24:21;25.10;99.90
26623;DHT22;14254;50.968;5.366;2022-09-13T15:27:00;25.10;99.90
26623;DHT22;14254;50.968;5.366;2022-09-13T15:29:26;25.20;99.90
26623;DHT22;14254;50.968;5.366;2022-09-13T15:31:57;24.70;99.90
26623;DHT22;14254;50.968;5.366;2022-09-13T15:34:23;24.10;99.90
26623;DHT22;14254;50.968;5.366;2022-09-13T15:40:00;23.50;99.90
26623;DHT22;14254;50.968;5.366;2022-09-13T15:42:26;23.30;99.90
26623;DHT22;14254;50.968;5.366;2022-09-13T15:44:52;23.00;99.90
26623;DHT22;14254;50.968;5.366;2022-09-13T15:47:18;23.00;99.90
26623;DHT22;14254;50.968;5.366;2022-09-13T15:49:49;22.90;99.90
26623;DHT22;14254;50.968;5.366;2022-09-13T15:52:16;22.70;99.90
26623;DHT22;14254;50.968;5.366;2022-09-13T15:54:42;22.50;99.90
26623;DHT22;14254;50.968;5.366;2022-09-13T15:57:28;22.30;99.90
26623;DHT22;14254;50.968;5.366;2022-09-13T15:59:55;22.30;99.90
26623;DHT22;14254;50.968;5.366;2022-09-13T16:02:25;22.20;99.90
26623;DHT22;14254;50.968;5.366;2022-09-13T16:04:53;22.30;99.90
26623;DHT22;14254;50.968;5.366;2022-09-13T16:07:19;22.30;99.90
26623;DHT22;14254;50.968;5.366;2022-09-13T16:09:46;22.40;99.90
26623;DHT22;14254;50.968;5.366;2022-09-13T16:12:13;22.30;99.90
26623;DHT22;14254;50.968;5.366;2022-09-13T16:14:39;22.40;99.90
26623;DHT22;14254;50.968;5.366;2022-09-13T16:17:15;22.50;99.90
26623;DHT22;14254;50.968;5.366;2022-09-13T16:19:41;22.50;99.90
26623;DHT22;14254;50.968;5.366;2022-09-13T16:22:07;22.30;99.90
26623;DHT22;14254;50.968;5.366;2022-09-13T16:24:32;22.40;99.90
26623;DHT22;14254;50.968;5.366;2022-09-13T16:27:01;22.50;99.90
26623;DHT22;14254;50.968;5.366;2022-09-13T16:29:27;22.10;99.90
26623;DHT22;14254;50.968;5.366;2022-09-13T16:31:52;22.10;99.90
26623;DHT22;14254;50.968;5.366;2022-09-13T16:34:18;22.30;99.90
26623;DHT22;14254;50.968;5.366;2022-09-13T16:36:44;22.10;99.90
26623;DHT22;14254;50.968;5.366;2022-09-13T16:39:10;22.00;99.90
26623;DHT22;14254;50.968;5.366;2022-09-13T16:41:38;22.10;99.90
26623;DHT22;14254;50.968;5.366;2022-09-13T16:44:04;22.20;99.90
26623;DHT22;14254;50.968;5.366;2022-09-13T16:46:30;22.20;99.90
26623;DHT22;14254;50.968;5.366;2022-09-13T16:48:56;22.20;99.90
26623;DHT22;14254;50.968;5.366;2022-09-13T16:51:23;22.20;99.90
26623;DHT22;14254;50.968;5.366;2022-09-13T16:53:50;22.20;99.90
26623;DHT22;14254;50.968;5.366;2022-09-13T16:56:17;22.10;99.90
26623;DHT22;14254;50.968;5.366;2022-09-13T16:58:44;22.00;99.90
26623;DHT22;14254;50.968;5.366;2022-09-13T17:01:18;21.90;99.90
26623;DHT22;14254;50.968;5.366;2022-09-13T17:03:44;21.90;99.90
26623;DHT22;14254;50.968;5.366;2022-09-13T17:06:12;21.90;99.90
26623;DHT22;14254;50.968;5.366;2022-09-13T17:08:40;21.90;99.90
26623;DHT22;14254;50.968;5.366;2022-09-13T17:11:11;21.90;99.90
26623;DHT22;14254;50.968;5.366;2022-09-13T17:13:37;21.60;99.90
26623;DHT22;14254;50.968;5.366;2022-09-13T17:16:04;21.50;99.90
26623;DHT22;14254;50.968;5.366;2022-09-13T17:18:31;21.40;99.90
26623;DHT22;14254;50.968;5.366;2022-09-13T17:20:58;21.30;99.90
26623;DHT22;14254;50.968;5.366;2022-09-13T17:23:24;21.50;99.90
26623;DHT22;14254;50.968;5.366;2022-09-13T17:25:50;21.40;99.90
26623;DHT22;14254;50.968;5.366;2022-09-13T17:28:17;21.20;99.90
26623;DHT22;14254;50.968;5.366;2022-09-13T17:30:44;21.10;99.90
26623;DHT22;14254;50.968;5.366;2022-09-13T17:33:11;20.70;99.90
26623;DHT22;14254;50.968;5.366;2022-09-13T17:35:37;20.70;99.90
26623;DHT22;14254;50.968;5.366;2022-09-13T17:38:03;20.60;99.90
26623;DHT22;14254;50.968;5.366;2022-09-13T17:40:30;20.60;99.90
26623;DHT22;14254;50.968;5.366;2022-09-13T17:42:57;20.60;99.90
26623;DHT22;14254;50.968;5.366;2022-09-13T17:45:23;20.60;99.90
26623;DHT22;14254;50.968;5.366;2022-09-13T17:47:53;20.50;99.90
26623;DHT22;14254;50.968;5.366;2022-09-13T17:50:21;20.50;99.90
26623;DHT22;14254;50.968;5.366;2022-09-13T17:52:46;20.50;99.90
26623;DHT22;14254;50.968;5.366;2022-09-13T17:55:12;20.40;99.90
26623;DHT22;14254;50.968;5.366;2022-09-13T17:57:38;20.40;99.90
26623;DHT22;14254;50.968;5.366;2022-09-13T18:00:06;20.40;99.90
26623;DHT22;14254;50.968;5.366;2022-09-13T18:02:36;20.40;99.90
26623;DHT22;14254;50.968;5.366;2022-09-13T18:05:02;20.50;99.90
26623;DHT22;14254;50.968;5.366;2022-09-13T18:07:28;20.40;99.90
26623;DHT22;14254;50.968;5.366;2022-09-13T18:09:54;20.40;99.90
26623;DHT22;14254;50.968;5.366;2022-09-13T18:12:20;20.50;99.90
26623;DHT22;14254;50.968;5.366;2022-09-13T18:14:46;20.40;99.90
26623;DHT22;14254;50.968;5.366;2022-09-13T18:17:11;20.50;99.90
26623;DHT22;14254;50.968;5.366;2022-09-13T18:19:38;20.40;99.90
26623;DHT22;14254;50.968;5.366;2022-09-13T18:22:05;20.40;99.90
26623;DHT22;14254;50.968;5.366;2022-09-13T18:24:31;20.50;99.90
26623;DHT22;14254;50.968;5.366;2022-09-13T18:26:58;20.60;99.90
26623;DHT22;14254;50.968;5.366;2022-09-13T18:29:24;20.60;99.90
26623;DHT22;14254;50.968;5.366;2022-09-13T18:31:52;20.60;99.90
26623;DHT22;14254;50.968;5.366;2022-09-13T18:34:18;20.60;99.90
26623;DHT22;14254;50.968;5.366;2022-09-13T18:36:44;20.70;99.90
26623;DHT22;14254;50.968;5.366;2022-09-13T18:39:16;20.70;99.90
26623;DHT22;14254;50.968;5.366;2022-09-13T18:41:42;20.70;99.90
26623;DHT22;14254;50.968;5.366;2022-09-13T18:44:10;20.70;99.90
26623;DHT22;14254;50.968;5.366;2022-09-13T18:46:36;20.60;99.90
26623;DHT22;14254;50.968;5.366;2022-09-13T18:49:03;20.60;99.90
26623;DHT22;14254;50.968;5.366;2022-09-13T18:51:32;20.60;99.90
26623;DHT22;14254;50.968;5.366;2022-09-13T18:53:59;20.50;99.90
26623;DHT22;14254;50.968;5.366;2022-09-13T18:56:25;20.30;99.90
26623;DHT22;14254;50.968;5.366;2022-09-13T18:58:52;20.30;99.90
26623;DHT22;14254;50.968;5.366;2022-09-13T19:01:23;20.30;99.90
26623;DHT22;14254;50.968;5.366;2022-09-13T19:03:59;20.30;99.90
26623;DHT22;14254;50.968;5.366;2022-09-13T19:06:33;20.10;99.90
26623;DHT22;14254;50.968;5.366;2022-09-13T19:09:00;20.10;99.90
26623;DHT22;14254;50.968;5.366;2022-09-13T19:11:30;20.10;99.90
26623;DHT22;14254;50.968;5.366;2022-09-13T19:13:56;20.10;99.90
26623;DHT22;14254;50.968;5.366;2022-09-13T19:16:21;20.20;99.90
26623;DHT22;14254;50.968;5.366;2022-09-13T19:18:48;20.00;99.90
26623;DHT22;14254;50.968;5.366;2022-09-13T19:21:18;19.90;99.90
26623;DHT22;14254;50.968;5.366;2022-09-13T19:23:45;19.90;99.90